createdAt,value
2017-07-17T00:01:07.845Z,28.87
2017-07-17T00:03:36.195Z,30.97
2017-07-17T00:06:05.129Z,17.33
2017-07-17T00:08:33.464Z,20.23
2017-07-17T00:11:01.809Z,20.57
2017-07-17T00:13:30.411Z,18.20
2017-07-17T00:15:58.744Z,24.53
2017-07-17T00:18:27.108Z,24.73
2017-07-17T00:20:55.789Z,19.57
2017-07-17T00:23:24.138Z,27.27
2017-07-17T00:25:52.458Z,18.63
2017-07-17T00:28:21.461Z,14.17
2017-07-17T00:30:49.783Z,20.10
2017-07-17T00:33:18.119Z,18.83
2017-07-17T00:35:46.896Z,27.97
2017-07-17T00:38:15.268Z,19.23
2017-07-17T00:40:43.579Z,15.20
2017-07-17T00:43:12.197Z,18.17
2017-07-17T00:45:40.528Z,20.97
2017-07-17T00:48:08.867Z,35.00
2017-07-17T00:50:37.719Z,19.27
2017-07-17T00:53:06.041Z,27.43
2017-07-17T00:55:34.363Z,21.37
2017-07-17T00:58:03.230Z,23.57
2017-07-17T01:00:31.551Z,32.17
2017-07-17T01:02:59.868Z,30.73
2017-07-17T01:05:28.505Z,38.87
2017-07-17T01:07:56.829Z,21.80
2017-07-17T01:10:25.946Z,42.67
2017-07-17T01:12:54.921Z,22.20
2017-07-17T01:15:23.245Z,24.37
2017-07-17T01:17:51.575Z,24.20
2017-07-17T01:20:20.395Z,33.37
2017-07-17T01:22:48.726Z,21.17
2017-07-17T01:25:17.077Z,20.20
2017-07-17T01:27:45.676Z,19.60
2017-07-17T01:30:13.992Z,18.97
2017-07-17T01:32:43.107Z,13.13
2017-07-17T01:35:11.886Z,12.33
2017-07-17T01:37:40.224Z,22.23
2017-07-17T01:40:08.562Z,38.93
2017-07-17T01:42:37.181Z,22.20
2017-07-17T01:45:05.518Z,21.13
2017-07-17T01:47:33.855Z,22.13
2017-07-17T01:50:02.785Z,15.73
2017-07-17T01:52:31.140Z,15.17
2017-07-17T01:55:00.232Z,20.03
2017-07-17T01:57:29.374Z,21.30
2017-07-17T01:59:57.719Z,19.23
2017-07-17T02:02:26.050Z,11.63
2017-07-17T02:04:54.721Z,19.57
2017-07-17T02:07:23.051Z,25.43
2017-07-17T02:09:52.160Z,23.07
2017-07-17T02:12:20.822Z,20.77
2017-07-17T02:14:49.171Z,27.17
2017-07-17T02:17:17.523Z,18.00
2017-07-17T02:19:46.320Z,12.77
2017-07-17T02:22:14.660Z,30.40
2017-07-17T02:24:43.002Z,21.10
2017-07-17T02:27:11.858Z,18.37
2017-07-17T02:29:40.198Z,23.50
2017-07-17T02:32:08.547Z,15.93
2017-07-17T02:34:37.292Z,22.50
2017-07-17T02:37:05.648Z,15.93
2017-07-17T02:39:33.976Z,16.83
2017-07-17T02:42:02.942Z,17.60
2017-07-17T02:44:31.261Z,25.80
2017-07-17T02:46:59.599Z,20.40
2017-07-17T02:49:29.073Z,23.50
2017-07-17T02:51:58.283Z,26.03
2017-07-17T02:54:26.616Z,19.10
2017-07-17T02:56:55.246Z,27.97
2017-07-17T02:59:23.583Z,26.73
2017-07-17T03:01:51.931Z,32.57
2017-07-17T03:04:20.924Z,17.53
2017-07-17T03:06:49.260Z,25.20
2017-07-17T03:09:17.597Z,14.23
2017-07-17T03:11:46.364Z,19.00
2017-07-17T03:14:14.706Z,13.20
2017-07-17T03:16:43.055Z,19.97
2017-07-17T03:19:11.815Z,16.17
2017-07-17T03:21:40.160Z,16.47
2017-07-17T03:24:16.714Z,19.93
2017-07-17T03:26:45.044Z,16.53
2017-07-17T03:29:13.379Z,17.53
2017-07-17T03:31:42.194Z,19.43
2017-07-17T03:34:10.513Z,16.63
2017-07-17T03:36:38.886Z,19.67
2017-07-17T03:39:07.842Z,21.77
2017-07-17T03:41:36.165Z,27.90
2017-07-17T03:44:04.497Z,23.57
2017-07-17T03:46:34.310Z,30.43
2017-07-17T03:49:02.655Z,17.83
2017-07-17T03:51:30.988Z,18.23
2017-07-17T03:53:59.617Z,21.33
2017-07-17T03:56:27.973Z,26.73
2017-07-17T03:58:56.305Z,35.07
2017-07-17T04:01:24.961Z,35.43
2017-07-17T04:03:53.305Z,23.10
2017-07-17T04:06:22.003Z,25.07
2017-07-17T04:08:50.869Z,15.13
2017-07-17T04:11:19.219Z,20.40
2017-07-17T04:13:47.604Z,23.90
2017-07-17T04:16:16.506Z,18.30
2017-07-17T04:18:44.834Z,17.83
2017-07-17T04:21:13.221Z,35.30
2017-07-17T04:23:41.969Z,12.93
2017-07-17T04:26:10.305Z,16.23
2017-07-17T04:28:38.649Z,23.20
2017-07-17T04:31:07.818Z,16.87
2017-07-17T04:33:36.144Z,23.33
2017-07-17T04:36:04.495Z,22.83
2017-07-17T04:38:33.155Z,19.60
2017-07-17T04:41:02.267Z,24.73
2017-07-17T04:43:30.587Z,29.63
2017-07-17T04:45:59.367Z,22.00
2017-07-17T04:48:27.715Z,20.20
2017-07-17T04:50:56.049Z,29.00
2017-07-17T04:53:24.913Z,21.17
2017-07-17T04:55:53.260Z,19.83
2017-07-17T04:58:21.586Z,18.67
2017-07-17T05:00:50.409Z,31.17
2017-07-17T05:03:18.751Z,12.97
2017-07-17T05:05:47.092Z,26.40
2017-07-17T05:08:15.750Z,28.27
2017-07-17T05:10:45.230Z,23.47
2017-07-17T05:13:13.567Z,22.87
2017-07-17T05:15:42.541Z,27.43
2017-07-17T05:18:10.878Z,22.57
2017-07-17T05:20:39.204Z,19.53
2017-07-17T05:23:07.836Z,23.03
2017-07-17T05:25:36.182Z,24.83
2017-07-17T05:28:04.519Z,26.90
2017-07-17T05:30:33.410Z,19.50
2017-07-17T05:33:01.748Z,28.63
2017-07-17T05:35:30.108Z,15.30
2017-07-17T05:37:58.877Z,18.77
2017-07-17T05:40:27.223Z,28.27
2017-07-17T05:42:55.575Z,25.10
2017-07-17T05:45:24.246Z,21.13
2017-07-17T05:47:52.590Z,12.63
2017-07-17T05:50:20.958Z,23.43
2017-07-17T05:52:50.579Z,17.87
2017-07-17T05:55:18.925Z,18.20
2017-07-17T05:57:47.264Z,15.03
2017-07-17T06:00:16.425Z,21.83
2017-07-17T06:02:44.799Z,16.03
2017-07-17T06:05:13.913Z,12.53
2017-07-17T06:07:42.672Z,28.23
2017-07-17T06:10:11.032Z,20.37
2017-07-17T06:12:39.974Z,22.00
2017-07-17T06:15:08.609Z,15.00
2017-07-17T06:17:36.949Z,13.70
2017-07-17T06:20:05.302Z,25.53
2017-07-17T06:22:34.258Z,14.33
2017-07-17T06:25:02.593Z,18.10
2017-07-17T06:27:30.949Z,16.73
2017-07-17T06:29:59.847Z,13.50
2017-07-17T06:32:28.208Z,14.63
2017-07-17T06:34:56.557Z,16.97
2017-07-17T06:37:25.203Z,14.23
2017-07-17T06:39:53.539Z,9.60
2017-07-17T06:42:21.905Z,14.40
2017-07-17T06:44:50.747Z,11.70
2017-07-17T06:47:19.093Z,15.10
2017-07-17T06:49:47.427Z,7.63
2017-07-17T06:52:16.097Z,6.47
2017-07-17T06:54:44.439Z,5.77
2017-07-17T06:57:12.760Z,7.60
2017-07-17T06:59:41.425Z,5.00
2017-07-17T07:02:09.746Z,4.80
2017-07-17T07:04:38.049Z,4.17
2017-07-17T07:07:07.087Z,6.77
2017-07-17T07:09:35.421Z,4.10
2017-07-17T07:12:03.759Z,4.10
2017-07-17T07:14:32.767Z,6.13
2017-07-17T07:17:01.109Z,4.43
2017-07-17T07:19:30.202Z,4.40
2017-07-17T07:21:59.618Z,7.27
2017-07-17T07:24:27.990Z,14.10
2017-07-17T07:26:57.135Z,3.43
2017-07-17T07:29:25.943Z,4.47
2017-07-17T07:31:54.290Z,3.50
2017-07-17T07:34:22.617Z,3.70
2017-07-17T07:36:51.561Z,3.70
2017-07-17T07:39:19.887Z,3.33
2017-07-17T07:41:48.987Z,7.53
2017-07-17T07:44:18.608Z,5.40
2017-07-17T07:46:46.956Z,6.00
2017-07-17T07:49:15.277Z,3.80
2017-07-17T07:51:44.411Z,2.30
2017-07-17T07:54:12.745Z,1.60
2017-07-17T07:56:41.103Z,7.00
2017-07-17T07:59:10.530Z,4.90
2017-07-17T08:01:38.860Z,3.93
2017-07-17T08:04:07.211Z,4.13
2017-07-17T08:06:35.973Z,4.17
2017-07-17T08:09:04.316Z,3.27
2017-07-17T08:11:32.661Z,1.83
2017-07-17T08:14:01.697Z,5.40
2017-07-17T08:16:30.040Z,7.70
2017-07-17T08:18:58.382Z,2.00
2017-07-17T08:21:27.268Z,2.00
2017-07-17T08:23:55.610Z,4.60
2017-07-17T08:26:23.955Z,3.80
2017-07-17T08:28:52.611Z,2.97
2017-07-17T08:31:20.945Z,3.87
2017-07-17T08:33:49.288Z,8.37
2017-07-17T08:36:18.151Z,7.80
2017-07-17T08:38:46.502Z,3.23
2017-07-17T08:41:14.835Z,8.97
2017-07-17T08:43:43.512Z,2.83
2017-07-17T08:46:11.842Z,6.23
2017-07-17T08:48:40.168Z,2.50
2017-07-17T08:51:09.053Z,7.37
2017-07-17T08:53:37.389Z,2.07
2017-07-17T08:56:05.718Z,3.60
2017-07-17T08:58:34.890Z,4.00
2017-07-17T09:01:03.230Z,4.57
2017-07-17T09:03:31.565Z,11.70
2017-07-17T09:06:00.357Z,9.07
2017-07-17T09:08:28.700Z,2.23
2017-07-17T09:10:57.062Z,7.27
2017-07-17T09:13:25.734Z,8.80
2017-07-17T09:15:54.079Z,10.47
2017-07-17T09:18:22.409Z,4.80
2017-07-17T09:20:51.395Z,5.57
2017-07-17T09:23:19.737Z,3.33
2017-07-17T09:25:48.076Z,3.47
2017-07-17T09:28:16.901Z,1.97
2017-07-17T09:30:45.233Z,5.50
2017-07-17T09:33:13.592Z,4.73
2017-07-17T09:35:42.222Z,2.17
2017-07-17T09:38:10.563Z,2.30
2017-07-17T09:40:38.924Z,1.47
2017-07-17T09:43:07.983Z,4.17
2017-07-17T09:45:36.330Z,2.73
2017-07-17T09:48:04.656Z,1.70
2017-07-17T09:50:33.434Z,7.30
2017-07-17T09:53:01.759Z,3.07
2017-07-17T09:55:30.158Z,3.90
2017-07-17T09:57:58.935Z,8.17
2017-07-17T10:00:27.240Z,2.83
2017-07-17T10:02:56.350Z,6.40
2017-07-17T10:05:25.334Z,5.90
2017-07-17T10:07:53.676Z,2.90
2017-07-17T10:10:22.010Z,2.00
2017-07-17T10:12:50.772Z,3.43
2017-07-17T10:15:19.118Z,5.10
2017-07-17T10:17:47.437Z,3.37
2017-07-17T10:20:16.130Z,5.97
2017-07-17T10:22:45.233Z,3.67
2017-07-17T10:25:14.342Z,5.00
2017-07-17T10:27:43.316Z,6.23
2017-07-17T10:30:11.643Z,6.40
2017-07-17T10:32:39.976Z,7.00
2017-07-17T10:35:08.671Z,9.90
2017-07-17T10:37:37.047Z,15.83
2017-07-17T10:40:05.391Z,3.63
2017-07-17T10:42:33.995Z,6.43
2017-07-17T10:45:02.329Z,4.17
2017-07-17T10:47:30.661Z,4.53
2017-07-17T10:49:59.639Z,4.83
2017-07-17T10:52:27.987Z,8.10
2017-07-17T10:54:56.341Z,12.73
2017-07-17T10:57:25.002Z,7.40
2017-07-17T10:59:53.348Z,10.33
2017-07-17T11:02:21.692Z,6.53
2017-07-17T11:04:50.543Z,2.20
2017-07-17T11:07:18.890Z,5.40
2017-07-17T11:09:47.235Z,6.17
2017-07-17T11:12:15.914Z,4.53
2017-07-17T11:14:44.233Z,8.13
2017-07-17T11:17:12.578Z,10.67
2017-07-17T11:19:41.225Z,6.87
2017-07-17T11:22:09.579Z,2.20
2017-07-17T11:24:37.930Z,8.00
2017-07-17T11:27:06.669Z,4.73
2017-07-17T11:29:35.008Z,3.93
2017-07-17T11:32:03.324Z,2.50
2017-07-17T11:34:32.840Z,4.07
2017-07-17T11:37:01.184Z,4.37
2017-07-17T11:39:29.507Z,5.80
2017-07-17T11:41:58.372Z,5.10
2017-07-17T11:44:26.714Z,3.53
2017-07-17T11:57:09.923Z,5.17
2017-07-17T11:59:38.858Z,2.20
2017-07-17T12:02:07.189Z,3.70
2017-07-17T12:04:35.527Z,3.33
2017-07-17T12:07:04.299Z,5.47
2017-07-17T12:09:32.648Z,2.67
2017-07-17T12:12:01.005Z,1.77
2017-07-17T12:14:30.158Z,5.30
2017-07-17T12:16:58.579Z,2.90
2017-07-17T12:19:26.930Z,3.40
2017-07-17T12:21:55.814Z,4.67
2017-07-17T12:24:24.133Z,4.37
2017-07-17T12:26:52.486Z,3.83
2017-07-17T12:29:21.429Z,6.47
2017-07-17T12:31:49.767Z,12.00
2017-07-17T12:34:18.107Z,5.13
2017-07-17T12:36:47.320Z,2.77
2017-07-17T12:39:15.659Z,4.73
2017-07-17T12:41:44.014Z,3.60
2017-07-17T12:44:12.761Z,5.30
2017-07-17T12:46:41.110Z,9.00
2017-07-17T12:49:09.472Z,7.03
2017-07-17T12:51:38.414Z,5.83
2017-07-17T12:54:06.746Z,5.73
2017-07-17T12:56:35.077Z,8.70
2017-07-17T12:59:05.294Z,9.30
2017-07-17T13:01:33.648Z,3.90
2017-07-17T13:04:02.766Z,3.37
2017-07-17T13:06:31.436Z,3.77
2017-07-17T13:08:59.808Z,3.93
2017-07-17T13:11:28.153Z,5.00
2017-07-17T13:13:56.788Z,4.10
2017-07-17T13:16:25.111Z,17.17
2017-07-17T13:18:53.460Z,12.60
2017-07-17T13:21:22.644Z,2.10
2017-07-17T13:23:50.986Z,6.83
2017-07-17T13:26:19.339Z,4.20
2017-07-17T13:28:48.086Z,9.30
2017-07-17T13:31:16.413Z,2.80
2017-07-17T13:33:44.742Z,3.80
2017-07-17T13:36:14.396Z,6.57
2017-07-17T13:38:42.768Z,6.07
2017-07-17T13:41:11.153Z,8.20
2017-07-17T13:43:40.001Z,8.13
2017-07-17T13:46:08.358Z,6.23
2017-07-17T13:48:36.704Z,2.13
2017-07-17T13:51:05.452Z,5.70
2017-07-17T13:53:33.796Z,5.57
2017-07-17T13:56:02.160Z,6.50
2017-07-17T13:58:30.893Z,5.03
2017-07-17T14:00:59.259Z,13.37
2017-07-17T14:03:28.353Z,7.80
2017-07-17T14:05:58.161Z,6.83
2017-07-17T14:08:26.505Z,2.93
2017-07-17T14:10:54.854Z,6.53
2017-07-17T14:13:23.632Z,3.03
2017-07-17T14:15:51.968Z,3.63
2017-07-17T14:18:20.330Z,6.90
2017-07-17T14:20:49.075Z,4.63
2017-07-17T14:23:17.415Z,5.83
2017-07-17T14:25:45.785Z,3.23
2017-07-17T14:28:15.123Z,1.77
2017-07-17T14:30:43.465Z,5.50
2017-07-17T14:33:11.862Z,3.50
2017-07-17T14:35:40.677Z,3.17
2017-07-17T14:38:09.016Z,6.37
2017-07-17T14:40:37.383Z,3.27
2017-07-17T14:43:06.000Z,8.43
2017-07-17T14:45:34.343Z,6.50
2017-07-17T14:48:02.669Z,6.40
2017-07-17T14:50:32.486Z,4.10
2017-07-17T14:53:00.839Z,1.83
2017-07-17T14:55:29.170Z,2.57
2017-07-17T14:57:57.809Z,15.73
2017-07-17T15:00:26.938Z,4.00
2017-07-17T15:02:55.281Z,7.60
2017-07-17T15:05:24.228Z,6.43
2017-07-17T15:07:52.596Z,3.07
2017-07-17T15:10:20.960Z,7.20
2017-07-17T15:12:50.088Z,5.77
2017-07-17T15:15:18.409Z,3.97
2017-07-17T15:17:46.732Z,1.80
2017-07-17T15:20:15.694Z,2.17
2017-07-17T15:22:44.030Z,8.87
2017-07-17T15:25:12.385Z,3.10
2017-07-17T15:27:41.031Z,8.80
2017-07-17T15:30:10.139Z,3.97
2017-07-17T15:32:38.485Z,5.90
2017-07-17T15:35:07.621Z,2.13
2017-07-17T15:37:35.988Z,3.50
2017-07-17T15:40:04.381Z,5.90
2017-07-17T15:42:33.137Z,4.53
2017-07-17T15:45:02.261Z,3.73
2017-07-17T15:47:30.610Z,2.80
2017-07-17T15:49:59.290Z,6.10
2017-07-17T15:52:27.632Z,4.70
2017-07-17T15:54:55.975Z,7.67
2017-07-17T15:57:25.450Z,8.83
2017-07-17T15:59:53.800Z,3.67
2017-07-17T16:02:22.150Z,4.00
2017-07-17T16:04:51.149Z,3.27
2017-07-17T16:07:19.511Z,4.17
2017-07-17T16:09:47.869Z,5.50
2017-07-17T16:12:16.678Z,5.50
2017-07-17T16:14:45.053Z,8.17
2017-07-17T16:17:13.391Z,2.70
2017-07-17T16:19:42.534Z,3.23
2017-07-17T16:22:10.873Z,5.07
2017-07-17T16:24:39.210Z,3.03
2017-07-17T16:27:07.891Z,5.80
2017-07-17T16:29:36.244Z,4.53
2017-07-17T16:32:04.580Z,4.87
2017-07-17T16:34:33.428Z,2.03
2017-07-17T16:37:01.775Z,4.93
2017-07-17T16:39:30.133Z,2.67
2017-07-17T16:41:59.127Z,5.33
2017-07-17T16:44:27.488Z,2.80
2017-07-17T16:46:55.840Z,7.73
2017-07-17T16:49:24.521Z,2.67
2017-07-17T16:51:52.951Z,10.27
2017-07-17T16:54:21.298Z,2.73
2017-07-17T16:56:50.167Z,1.47
2017-07-17T16:59:18.499Z,9.10
2017-07-17T17:01:46.825Z,7.90
2017-07-17T17:04:16.652Z,7.37
2017-07-17T17:06:45.005Z,4.23
2017-07-17T17:09:14.114Z,3.30
2017-07-17T17:11:43.600Z,3.03
2017-07-17T17:14:12.734Z,1.67
2017-07-17T17:16:41.106Z,5.93
2017-07-17T17:19:10.008Z,3.60
2017-07-17T17:21:38.347Z,6.83
2017-07-17T17:24:06.685Z,4.20
2017-07-17T17:26:35.781Z,8.83
2017-07-17T17:29:04.156Z,5.40
2017-07-17T17:31:32.509Z,3.77
2017-07-17T17:34:01.127Z,7.23
2017-07-17T17:36:29.465Z,4.43
2017-07-17T17:38:58.551Z,2.77
2017-07-17T17:41:27.167Z,3.67
2017-07-17T17:43:55.535Z,4.33
2017-07-17T17:46:23.892Z,8.63
2017-07-17T17:48:52.987Z,15.00
2017-07-17T17:51:21.340Z,3.30
2017-07-17T17:53:49.795Z,7.10
2017-07-17T17:56:18.424Z,3.10
2017-07-17T17:58:46.789Z,6.53
2017-07-17T18:01:15.142Z,13.37
2017-07-17T18:03:43.999Z,6.23
2017-07-17T18:06:12.342Z,3.43
2017-07-17T18:08:40.678Z,6.40
2017-07-17T18:11:09.527Z,7.83
2017-07-17T18:13:37.870Z,11.47
2017-07-17T18:16:06.241Z,2.73
2017-07-17T18:18:34.918Z,5.43
2017-07-17T18:21:03.275Z,6.57
2017-07-17T18:23:31.620Z,4.13
2017-07-17T18:26:00.442Z,6.93
2017-07-17T18:28:28.783Z,6.33
2017-07-17T18:30:57.125Z,17.30
2017-07-17T18:33:26.165Z,4.13
2017-07-17T18:35:55.275Z,4.70
2017-07-17T18:38:24.401Z,4.43
2017-07-17T18:40:53.019Z,7.40
2017-07-17T18:43:21.362Z,5.20
2017-07-17T18:45:49.710Z,5.83
2017-07-17T18:48:18.621Z,11.63
2017-07-17T18:50:46.956Z,4.47
2017-07-17T18:53:15.306Z,8.70
2017-07-17T18:55:44.464Z,7.43
2017-07-17T18:58:12.811Z,4.63
2017-07-17T19:00:41.151Z,4.70
2017-07-17T19:03:09.883Z,8.30
2017-07-17T19:05:38.219Z,11.03
2017-07-17T19:08:06.547Z,6.33
2017-07-17T19:10:35.940Z,4.70
2017-07-17T19:13:04.318Z,5.70
2017-07-17T19:15:33.426Z,5.70
2017-07-17T19:18:03.259Z,7.83
2017-07-17T19:20:31.597Z,3.23
2017-07-17T19:22:59.977Z,3.07
2017-07-17T19:25:28.828Z,10.73
2017-07-17T19:27:57.173Z,7.33
2017-07-17T19:30:25.516Z,8.33
2017-07-17T19:32:54.366Z,6.47
2017-07-17T19:35:22.699Z,8.10
2017-07-17T19:37:51.044Z,4.53
2017-07-17T19:40:19.865Z,10.23
2017-07-17T19:42:48.214Z,4.83
2017-07-17T19:45:16.567Z,9.33
2017-07-17T19:47:45.447Z,6.30
2017-07-17T19:50:13.781Z,12.00
2017-07-17T19:52:42.113Z,20.90
2017-07-17T19:55:10.740Z,6.10
2017-07-17T19:57:39.097Z,18.30
2017-07-17T20:00:07.489Z,5.83
2017-07-17T20:02:36.381Z,11.60
2017-07-17T20:05:04.718Z,8.23
2017-07-17T20:07:33.045Z,8.10
2017-07-17T20:10:01.738Z,12.23
2017-07-17T20:12:30.074Z,8.57
2017-07-17T20:14:58.416Z,9.47
2017-07-17T20:17:28.058Z,18.93
2017-07-17T20:19:56.418Z,14.57
2017-07-17T20:22:25.548Z,9.53
2017-07-17T20:24:54.515Z,11.37
2017-07-17T20:27:22.847Z,9.07
2017-07-17T20:29:51.175Z,11.00
2017-07-17T20:32:20.200Z,13.43
2017-07-17T20:34:48.553Z,5.00
2017-07-17T20:37:16.902Z,19.87
2017-07-17T20:39:45.554Z,12.77
2017-07-17T20:42:13.893Z,13.13
2017-07-17T20:44:42.246Z,7.40
2017-07-17T20:47:12.071Z,7.23
2017-07-17T20:49:40.419Z,14.00
2017-07-17T20:52:08.780Z,8.00
2017-07-17T20:54:37.729Z,3.60
2017-07-17T20:57:06.139Z,7.20
2017-07-17T20:59:34.483Z,6.80
2017-07-17T21:02:03.176Z,9.33
2017-07-17T21:04:31.537Z,15.23
2017-07-17T21:06:59.906Z,8.87
2017-07-17T21:09:28.657Z,10.70
2017-07-17T21:11:57.027Z,31.73
2017-07-17T21:14:25.391Z,13.77
2017-07-17T21:16:54.341Z,6.60
2017-07-17T21:19:22.688Z,14.67
2017-07-17T21:21:51.022Z,11.30
2017-07-17T21:24:19.727Z,27.93
2017-07-17T21:26:48.087Z,11.80
2017-07-17T21:29:16.442Z,13.97
2017-07-17T21:31:45.244Z,13.47
2017-07-17T21:34:14.339Z,13.50
2017-07-17T21:36:43.429Z,5.47
2017-07-17T21:39:12.255Z,9.00
2017-07-17T21:41:40.591Z,17.17
2017-07-17T21:44:08.954Z,14.03
2017-07-17T21:46:37.888Z,18.87
2017-07-17T21:49:06.240Z,16.47
2017-07-17T21:51:34.578Z,13.60
2017-07-17T21:54:03.354Z,10.03
2017-07-17T21:56:31.711Z,8.53
2017-07-17T21:59:00.808Z,12.17
2017-07-17T22:01:30.214Z,18.13
2017-07-17T22:03:58.558Z,8.53
2017-07-17T22:06:26.907Z,13.77
2017-07-17T22:08:55.676Z,15.13
2017-07-17T22:11:24.025Z,19.80
2017-07-17T22:13:53.154Z,11.03
2017-07-17T22:16:21.888Z,18.83
2017-07-17T22:18:50.230Z,16.13
2017-07-17T22:21:18.583Z,17.60
2017-07-17T22:23:47.378Z,15.77
2017-07-17T22:26:15.710Z,17.03
2017-07-17T22:28:44.053Z,23.67
2017-07-17T22:31:12.917Z,8.87
2017-07-17T22:33:41.272Z,10.00
2017-07-17T22:36:09.626Z,9.93
2017-07-17T22:38:38.662Z,13.93
2017-07-17T22:41:07.014Z,14.27
2017-07-17T22:43:35.373Z,15.97
2017-07-17T22:46:04.315Z,6.33
2017-07-17T22:48:32.674Z,16.57
2017-07-17T22:51:01.787Z,11.10
2017-07-17T22:53:30.446Z,8.20
2017-07-17T22:55:58.791Z,10.53
2017-07-17T22:58:27.170Z,13.60
2017-07-17T23:00:56.270Z,8.63
2017-07-17T23:03:24.607Z,14.80
2017-07-17T23:05:53.711Z,26.23
2017-07-17T23:08:23.319Z,15.13
2017-07-17T23:10:51.658Z,19.60
2017-07-17T23:13:19.987Z,8.83
2017-07-17T23:15:48.772Z,15.73
2017-07-17T23:18:17.107Z,5.70
2017-07-17T23:20:45.451Z,6.27
2017-07-17T23:23:14.364Z,9.17
2017-07-17T23:25:42.693Z,9.80
2017-07-17T23:28:11.037Z,11.23
2017-07-17T23:30:39.862Z,11.80
2017-07-17T23:33:08.199Z,14.37
2017-07-17T23:35:36.550Z,17.83
2017-07-17T23:38:05.243Z,15.00
2017-07-17T23:40:33.586Z,14.67
2017-07-17T23:43:01.927Z,10.60
2017-07-17T23:45:30.748Z,6.97
2017-07-17T23:47:59.084Z,9.50
2017-07-17T23:50:27.450Z,8.30
2017-07-17T23:52:56.128Z,17.90
2017-07-17T23:55:24.458Z,11.63
2017-07-17T23:57:52.803Z,10.03
